createdAt,value
2023-04-21T00:00:55.273Z,66.68
2023-04-21T00:03:24.108Z,56.90
2023-04-21T00:05:51.820Z,83.45
2023-04-21T00:08:19.125Z,96.53
2023-04-21T00:10:49.028Z,104.93
2023-04-21T00:13:16.071Z,61.70
2023-04-21T00:15:43.115Z,72.05
2023-04-21T00:18:10.169Z,49.22
2023-04-21T00:20:37.141Z,55.03
2023-04-21T00:23:04.122Z,50.30
2023-04-21T00:25:31.117Z,43.55
2023-04-21T00:27:58.057Z,66.70
2023-04-21T00:30:25.193Z,68.93
2023-04-21T00:32:52.199Z,54.28
2023-04-21T00:35:19.180Z,58.33
2023-04-21T00:37:46.169Z,67.88
2023-04-21T00:40:13.613Z,72.78
2023-04-21T00:42:40.547Z,82.57
2023-04-21T00:45:07.958Z,57.08
2023-04-21T00:47:35.031Z,66.05
2023-04-21T00:50:03.114Z,93.43
2023-04-21T00:52:30.277Z,106.07
2023-04-21T00:54:57.468Z,66.63
2023-04-21T00:57:24.891Z,109.90
2023-04-21T00:59:52.036Z,65.95
2023-04-21T01:02:19.449Z,140.90
2023-04-21T01:04:46.558Z,123.30
2023-04-21T01:07:13.708Z,87.68
2023-04-21T01:09:40.661Z,98.60
2023-04-21T01:12:09.664Z,92.88
2023-04-21T01:14:38.124Z,83.85
2023-04-21T01:17:06.264Z,80.47
2023-04-21T01:19:36.329Z,98.20
2023-04-21T01:22:04.167Z,126.03
2023-04-21T01:24:41.311Z,107.03
2023-04-21T01:27:26.931Z,147.60
2023-04-21T01:29:53.899Z,108.20
2023-04-21T01:32:24.046Z,156.80
2023-04-21T01:34:52.031Z,158.10
2023-04-21T01:37:21.648Z,139.15
2023-04-21T01:39:54.135Z,152.55
2023-04-21T01:42:24.130Z,212.07
2023-04-21T01:44:53.661Z,108.45
2023-04-21T01:47:21.265Z,98.80
2023-04-21T01:49:48.284Z,104.30
2023-04-21T01:52:15.266Z,126.75
2023-04-21T01:54:42.266Z,121.07
2023-04-21T01:57:09.251Z,133.07
2023-04-21T01:59:36.208Z,167.13
2023-04-21T02:02:03.561Z,80.30
2023-04-21T02:04:31.033Z,136.45
2023-04-21T02:07:01.247Z,151.55
2023-04-21T02:09:28.187Z,156.93
2023-04-21T02:11:57.102Z,167.82
2023-04-21T02:14:25.409Z,160.25
2023-04-21T02:16:52.759Z,96.05
2023-04-21T02:19:20.499Z,131.73
2023-04-21T02:21:47.734Z,101.20
2023-04-21T02:24:14.692Z,128.25
2023-04-21T02:26:41.689Z,84.38
2023-04-21T02:29:08.614Z,111.85
2023-04-21T02:31:49.732Z,173.80
2023-04-21T02:34:23.556Z,125.50
2023-04-21T02:36:50.520Z,144.33
2023-04-21T02:39:17.747Z,127.57
2023-04-21T02:41:44.913Z,120.25
2023-04-21T02:44:11.869Z,192.90
2023-04-21T02:46:41.955Z,150.13
2023-04-21T02:49:09.900Z,113.93
2023-04-21T02:51:37.305Z,103.27
2023-04-21T02:54:05.162Z,89.97
2023-04-21T02:56:34.620Z,113.03
2023-04-21T02:59:01.629Z,180.10
2023-04-21T03:01:28.606Z,140.98
2023-04-21T03:03:55.790Z,118.05
2023-04-21T03:06:22.806Z,96.95
2023-04-21T03:08:49.730Z,176.65
2023-04-21T03:11:17.194Z,120.03
2023-04-21T03:13:44.209Z,141.40
2023-04-21T03:16:11.442Z,129.23
2023-04-21T03:18:38.340Z,214.93
2023-04-21T03:21:05.507Z,154.60
2023-04-21T03:23:32.614Z,151.63
2023-04-21T03:25:59.562Z,149.98
2023-04-21T03:28:26.489Z,159.75
2023-04-21T03:30:53.430Z,151.77
2023-04-21T03:33:20.485Z,122.45
2023-04-21T03:35:47.418Z,134.20
2023-04-21T03:38:14.385Z,147.70
2023-04-21T03:40:41.276Z,216.53
2023-04-21T03:43:08.244Z,96.43
2023-04-21T03:45:35.931Z,144.15
2023-04-21T03:48:03.828Z,86.33
2023-04-21T03:50:30.875Z,132.77
2023-04-21T03:52:57.818Z,115.03
2023-04-21T03:55:25.377Z,173.90
2023-04-21T03:57:52.359Z,176.57
2023-04-21T04:00:19.366Z,230.10
2023-04-21T04:02:46.550Z,193.50
2023-04-21T04:05:13.690Z,208.05
2023-04-21T04:07:40.827Z,125.65
2023-04-21T04:10:07.952Z,173.63
2023-04-21T04:12:34.930Z,111.80
2023-04-21T04:15:02.720Z,239.32
2023-04-21T04:17:29.759Z,156.93
2023-04-21T04:19:56.726Z,118.88
2023-04-21T04:22:23.659Z,130.50
2023-04-21T04:24:51.239Z,154.65
2023-04-21T04:27:20.352Z,166.32
2023-04-21T04:29:49.296Z,152.30
2023-04-21T04:32:16.306Z,184.55
2023-04-21T04:34:43.289Z,161.65
2023-04-21T04:37:11.090Z,135.32
2023-04-21T04:39:38.137Z,202.32
2023-04-21T04:42:11.747Z,125.88
2023-04-21T04:44:38.782Z,125.05
2023-04-21T04:47:05.974Z,106.85
2023-04-21T04:49:33.236Z,115.45
2023-04-21T04:52:01.838Z,100.32
2023-04-21T04:54:29.212Z,93.60
2023-04-21T04:56:57.758Z,85.10
2023-04-21T04:59:24.851Z,97.80
2023-04-21T05:01:52.518Z,91.15
2023-04-21T05:04:20.269Z,83.15
2023-04-21T05:06:47.867Z,94.30
2023-04-21T05:09:14.956Z,75.75
2023-04-21T05:11:41.999Z,72.90
2023-04-21T05:14:09.035Z,70.50
2023-04-21T05:16:36.033Z,89.70
2023-04-21T05:19:03.552Z,81.78
2023-04-21T05:21:31.321Z,78.53
2023-04-21T05:23:59.374Z,80.00
2023-04-21T05:26:27.646Z,73.20
2023-04-21T05:28:58.677Z,69.50
2023-04-21T05:31:25.764Z,57.40
2023-04-21T05:33:52.797Z,61.23
2023-04-21T05:36:24.874Z,60.00
2023-04-21T05:38:52.522Z,55.97
2023-04-21T05:41:19.505Z,56.72
2023-04-21T05:43:47.564Z,65.60
2023-04-21T05:46:14.720Z,59.10
2023-04-21T05:48:41.724Z,54.45
2023-04-21T05:51:13.255Z,62.90
2023-04-21T05:53:40.324Z,56.40
2023-04-21T05:56:09.067Z,51.72
2023-04-21T05:58:36.381Z,55.08
2023-04-21T06:01:03.747Z,61.88
2023-04-21T06:03:31.894Z,68.72
2023-04-21T06:06:01.078Z,61.53
2023-04-21T06:08:28.140Z,53.63
2023-04-21T06:10:55.226Z,54.28
2023-04-21T06:13:22.204Z,54.92
2023-04-21T06:15:49.268Z,55.33
2023-04-21T06:18:16.940Z,57.70
2023-04-21T06:20:50.658Z,66.37
2023-04-21T06:23:18.114Z,54.65
2023-04-21T06:25:45.324Z,51.60
2023-04-21T06:28:12.360Z,54.20
2023-04-21T06:30:39.347Z,54.25
2023-04-21T06:33:06.718Z,53.30
2023-04-21T06:35:33.864Z,54.10
2023-04-21T06:38:00.890Z,50.08
2023-04-21T06:40:27.920Z,49.10
2023-04-21T06:42:54.966Z,51.40
2023-04-21T06:45:21.948Z,53.20
2023-04-21T06:47:49.084Z,58.03
2023-04-21T06:50:16.327Z,50.78
2023-04-21T06:52:43.473Z,48.25
2023-04-21T06:55:11.153Z,46.77
2023-04-21T06:57:38.117Z,49.50
2023-04-21T07:00:06.003Z,48.53
2023-04-21T07:02:33.088Z,48.65
2023-04-21T07:05:00.124Z,47.55
2023-04-21T07:07:27.361Z,47.35
2023-04-21T07:09:54.291Z,48.72
2023-04-21T07:12:21.720Z,43.33
2023-04-21T07:14:48.647Z,46.00
2023-04-21T07:17:15.570Z,46.95
2023-04-21T07:19:42.608Z,45.10
2023-04-21T07:22:09.601Z,48.42
2023-04-21T07:24:37.365Z,43.50
2023-04-21T07:27:04.376Z,44.20
2023-04-21T07:29:31.377Z,41.85
2023-04-21T07:31:58.502Z,44.78
2023-04-21T07:34:25.704Z,42.92
2023-04-21T07:36:55.237Z,47.70
2023-04-21T07:39:22.707Z,45.00
2023-04-21T07:41:49.830Z,43.10
2023-04-21T07:44:16.843Z,42.03
2023-04-21T07:46:43.924Z,44.50
2023-04-21T07:49:10.988Z,41.03
2023-04-21T07:51:37.982Z,39.95
2023-04-21T07:54:04.927Z,39.35
2023-04-21T07:56:32.006Z,41.38
2023-04-21T07:58:59.028Z,39.80
2023-04-21T08:01:26.002Z,39.40
2023-04-21T08:03:53.025Z,40.58
2023-04-21T08:06:20.239Z,37.97
2023-04-21T08:08:47.311Z,36.72
2023-04-21T08:11:14.327Z,40.17
2023-04-21T08:13:41.418Z,41.22
2023-04-21T08:16:08.484Z,37.28
2023-04-21T08:18:35.881Z,40.53
2023-04-21T08:21:02.919Z,37.85
2023-04-21T08:23:32.346Z,37.97
2023-04-21T08:26:00.460Z,39.33
2023-04-21T08:28:27.472Z,38.60
2023-04-21T08:30:54.433Z,35.83
2023-04-21T08:33:21.414Z,36.60
2023-04-21T08:36:02.571Z,36.88
2023-04-21T08:38:33.082Z,32.55
2023-04-21T08:41:00.218Z,35.65
2023-04-21T08:43:29.071Z,34.58
2023-04-21T08:45:56.711Z,34.65
2023-04-21T08:48:25.071Z,35.28
2023-04-21T08:50:53.906Z,34.85
2023-04-21T08:53:21.637Z,31.67
2023-04-21T08:56:07.529Z,34.28
2023-04-21T08:58:36.758Z,33.80
2023-04-21T09:01:03.804Z,34.30
2023-04-21T09:03:31.401Z,33.13
2023-04-21T09:06:06.359Z,33.25
2023-04-21T09:08:36.606Z,33.08
2023-04-21T09:11:03.610Z,31.52
2023-04-21T09:13:32.442Z,34.63
2023-04-21T09:16:00.997Z,33.45
2023-04-21T09:18:35.237Z,32.20
2023-04-21T09:21:09.727Z,33.20
2023-04-21T09:24:05.263Z,31.48
2023-04-21T09:26:32.658Z,29.50
2023-04-21T09:28:59.699Z,29.02
2023-04-21T09:31:29.058Z,30.13
2023-04-21T09:34:00.410Z,32.30
2023-04-21T09:36:30.378Z,31.77
2023-04-21T09:41:33.194Z,32.60
2023-04-21T09:44:01.732Z,30.83
2023-04-21T09:46:30.149Z,30.00
2023-04-21T09:48:59.211Z,28.77
2023-04-21T09:51:48.595Z,32.53
2023-04-21T09:56:53.387Z,30.17
2023-04-21T09:59:27.499Z,28.70
2023-04-21T10:01:56.320Z,28.40
2023-04-21T10:04:25.436Z,27.30
2023-04-21T10:06:53.256Z,28.40
2023-04-21T10:09:22.846Z,28.10
2023-04-21T10:11:51.728Z,28.33
2023-04-21T10:14:19.151Z,29.45
2023-04-21T10:16:56.819Z,27.42
2023-04-21T10:19:28.017Z,30.27
2023-04-21T10:21:57.979Z,28.30
2023-04-21T10:24:29.021Z,26.95
2023-04-21T10:27:01.680Z,27.13
2023-04-21T10:29:40.137Z,26.75
2023-04-21T10:32:11.101Z,27.90
2023-04-21T10:34:38.598Z,28.92
2023-04-21T10:37:05.543Z,28.65
2023-04-21T10:39:43.236Z,27.88
2023-04-21T10:42:13.269Z,27.88
2023-04-21T10:44:44.341Z,28.08
2023-04-21T10:47:11.478Z,28.08
2023-04-21T10:49:39.574Z,30.10
2023-04-21T10:52:08.497Z,29.65
2023-04-21T10:55:04.615Z,29.27
2023-04-21T10:57:33.533Z,29.30
2023-04-21T11:00:00.634Z,26.63
2023-04-21T11:02:27.687Z,27.53
2023-04-21T11:04:55.268Z,28.10
2023-04-21T11:07:23.124Z,27.02
2023-04-21T11:10:04.969Z,28.75
2023-04-21T11:12:33.773Z,27.20
2023-04-21T11:15:07.640Z,28.58
2023-04-21T11:17:35.979Z,27.42
2023-04-21T11:20:06.988Z,28.02
2023-04-21T11:22:34.263Z,26.77
2023-04-21T11:25:01.471Z,27.25
2023-04-21T11:27:29.976Z,26.95
2023-04-21T11:29:57.574Z,26.35
2023-04-21T11:32:24.782Z,27.20
2023-04-21T11:34:51.887Z,25.80
2023-04-21T11:37:25.949Z,27.15
2023-04-21T11:40:03.250Z,26.80
2023-04-21T11:42:30.329Z,26.37
2023-04-21T11:44:57.412Z,27.50
2023-04-21T11:47:26.436Z,27.40
2023-04-21T11:49:56.024Z,26.85
2023-04-21T11:52:26.962Z,28.10
2023-04-21T11:55:19.864Z,28.40
2023-04-21T11:57:46.827Z,29.10
2023-04-21T12:00:15.155Z,27.63
2023-04-21T12:02:43.340Z,28.50
2023-04-21T12:05:11.931Z,28.17
2023-04-21T12:07:44.238Z,28.45
2023-04-21T12:10:12.669Z,29.13
2023-04-21T12:12:40.662Z,29.67
2023-04-21T12:15:09.091Z,27.83
2023-04-21T12:17:49.802Z,28.55
2023-04-21T12:20:18.419Z,27.20
2023-04-21T12:22:45.926Z,27.15
2023-04-21T12:25:13.750Z,25.42
2023-04-21T12:27:51.007Z,26.42
2023-04-21T12:30:18.910Z,27.50
2023-04-21T12:32:47.463Z,26.95
2023-04-21T12:35:14.592Z,26.45
2023-04-21T12:37:41.549Z,25.63
2023-04-21T12:40:08.981Z,27.23
2023-04-21T12:42:37.815Z,24.45
2023-04-21T12:45:06.487Z,25.92
2023-04-21T12:47:33.935Z,23.73
2023-04-21T12:50:01.237Z,24.63
2023-04-21T12:52:28.289Z,24.40
2023-04-21T12:54:55.274Z,22.95
2023-04-21T12:57:22.246Z,24.05
2023-04-21T12:59:49.221Z,22.15
2023-04-21T13:02:16.748Z,23.58
2023-04-21T13:04:43.817Z,22.80
2023-04-21T13:07:11.019Z,22.73
2023-04-21T13:09:38.370Z,24.30
2023-04-21T13:12:05.346Z,23.27
2023-04-21T13:14:32.567Z,22.95
2023-04-21T13:16:59.591Z,22.08
2023-04-21T13:19:26.778Z,23.00
2023-04-21T13:21:54.574Z,22.75
2023-04-21T13:24:21.993Z,23.42
2023-04-21T13:26:48.924Z,22.98
2023-04-21T13:29:16.083Z,21.80
2023-04-21T13:31:43.134Z,22.58
2023-04-21T13:34:10.149Z,22.13
2023-04-21T13:36:37.101Z,21.83
2023-04-21T13:39:04.580Z,22.67
2023-04-21T13:41:31.544Z,22.02
2023-04-21T13:43:58.555Z,22.48
2023-04-21T13:46:25.532Z,22.65
2023-04-21T13:48:52.565Z,22.70
2023-04-21T13:51:20.430Z,22.50
2023-04-21T13:53:47.863Z,22.67
2023-04-21T13:56:14.945Z,22.55
2023-04-21T13:58:42.081Z,21.65
2023-04-21T14:01:09.172Z,21.75
2023-04-21T14:03:36.487Z,22.10
2023-04-21T14:06:03.789Z,22.27
2023-04-21T14:08:30.705Z,21.98
2023-04-21T14:10:57.891Z,21.63
2023-04-21T14:16:00.576Z,22.10
2023-04-21T14:18:27.593Z,22.63
2023-04-21T14:20:54.575Z,21.73
2023-04-21T14:23:21.528Z,22.40
2023-04-21T14:25:48.494Z,21.80
2023-04-21T14:28:15.571Z,23.17
2023-04-21T14:30:43.091Z,22.88
2023-04-21T14:33:10.322Z,21.58
2023-04-21T14:35:37.792Z,21.90
2023-04-21T14:38:04.803Z,21.75
2023-04-21T14:40:31.842Z,21.70
2023-04-21T14:42:58.977Z,21.35
2023-04-21T14:45:26.176Z,22.42
2023-04-21T14:47:53.268Z,21.77
2023-04-21T14:50:20.426Z,21.58
2023-04-21T14:52:49.435Z,21.17
2023-04-21T14:55:16.540Z,22.30
2023-04-21T14:57:43.738Z,22.65
2023-04-21T15:00:11.423Z,22.13
2023-04-21T15:02:39.523Z,22.05
2023-04-21T15:05:08.586Z,22.00
2023-04-21T15:07:36.046Z,21.60
2023-04-21T15:10:03.302Z,22.38
2023-04-21T15:12:30.358Z,23.20
2023-04-21T15:14:57.400Z,23.25
2023-04-21T15:17:24.508Z,23.95
2023-04-21T15:19:51.588Z,24.70
2023-04-21T15:22:18.869Z,24.75
2023-04-21T15:24:46.026Z,26.55
2023-04-21T15:27:13.005Z,27.55
2023-04-21T15:29:40.283Z,28.80
2023-04-21T15:32:07.268Z,31.08
2023-04-21T15:34:34.306Z,28.60
2023-04-21T15:37:01.396Z,30.65
2023-04-21T15:39:28.328Z,30.50
2023-04-21T15:41:55.809Z,33.33
2023-04-21T15:44:22.914Z,32.17
2023-04-21T15:46:50.545Z,32.30
2023-04-21T15:49:17.689Z,31.15
2023-04-21T15:51:44.878Z,29.55
2023-04-21T15:54:11.838Z,27.50
2023-04-21T15:56:38.770Z,28.33
2023-04-21T15:59:06.002Z,28.47
2023-04-21T16:01:33.022Z,26.33
2023-04-21T16:04:00.248Z,27.02
2023-04-21T16:06:30.737Z,27.10
2023-04-21T16:08:57.907Z,25.73
2023-04-21T16:11:26.090Z,25.92
2023-04-21T16:13:53.089Z,25.60
2023-04-21T16:16:20.308Z,25.15
2023-04-21T16:18:47.330Z,25.63
2023-04-21T16:21:14.321Z,25.40
2023-04-21T16:23:41.257Z,25.33
2023-04-21T16:26:09.086Z,25.73
2023-04-21T16:28:36.261Z,26.58
2023-04-21T16:31:03.576Z,25.75
2023-04-21T16:33:30.784Z,24.15
2023-04-21T16:35:57.855Z,25.17
2023-04-21T16:38:25.069Z,24.02
2023-04-21T16:40:52.221Z,25.48
2023-04-21T16:43:21.082Z,25.52
2023-04-21T16:45:48.093Z,25.58
2023-04-21T16:48:15.129Z,27.95
2023-04-21T16:50:42.226Z,24.77
2023-04-21T16:53:09.179Z,25.77
2023-04-21T16:55:36.261Z,25.05
2023-04-21T16:58:03.246Z,25.63
2023-04-21T17:00:30.314Z,24.88
2023-04-21T17:02:57.622Z,26.50
2023-04-21T17:05:24.818Z,25.83
2023-04-21T17:07:51.891Z,25.03
2023-04-21T17:10:18.858Z,25.37
2023-04-21T17:12:46.299Z,25.10
2023-04-21T17:15:13.429Z,24.65
2023-04-21T17:17:43.010Z,23.75
2023-04-21T17:20:12.486Z,25.83
2023-04-21T17:22:40.136Z,24.80
2023-04-21T17:25:07.840Z,26.48
2023-04-21T17:27:36.029Z,25.27
2023-04-21T17:30:07.007Z,24.90
2023-04-21T17:32:34.560Z,24.77
2023-04-21T17:35:02.253Z,24.98
2023-04-21T17:37:30.066Z,25.67
2023-04-21T17:39:59.113Z,24.83
2023-04-21T17:42:28.649Z,25.40
2023-04-21T17:44:55.596Z,24.48
2023-04-21T17:47:22.752Z,24.58
2023-04-21T17:49:49.818Z,25.67
2023-04-21T17:52:17.269Z,26.30
2023-04-21T17:54:45.559Z,26.50
2023-04-21T17:57:12.608Z,29.45
2023-04-21T17:59:39.677Z,30.13
2023-04-21T18:02:07.250Z,30.00
2023-04-21T18:04:34.819Z,31.70
2023-04-21T18:07:02.843Z,31.65
2023-04-21T18:09:29.858Z,30.80
2023-04-21T18:11:56.934Z,31.80
2023-04-21T18:14:24.595Z,31.45
2023-04-21T18:16:51.627Z,32.42
2023-04-21T18:19:18.838Z,31.58
2023-04-21T18:21:45.822Z,33.90
2023-04-21T18:24:12.902Z,32.75
2023-04-21T18:26:40.154Z,31.20
2023-04-21T18:29:07.432Z,32.05
2023-04-21T18:31:34.583Z,32.20
2023-04-21T18:34:01.625Z,32.90
2023-04-21T18:36:30.748Z,32.50
2023-04-21T18:38:59.371Z,32.58
2023-04-21T18:41:26.915Z,31.77
2023-04-21T18:43:54.348Z,32.83
2023-04-21T18:46:21.349Z,16.83
2023-04-21T18:48:48.332Z,11.43
2023-04-21T18:51:15.287Z,11.20
2023-04-21T18:53:43.276Z,9.65
2023-04-21T18:56:10.301Z,7.50
2023-04-21T18:58:37.445Z,6.18
2023-04-21T19:01:04.426Z,6.45
2023-04-21T19:03:31.778Z,6.43
2023-04-21T19:05:59.035Z,54.67
2023-04-21T19:08:40.745Z,36.17
2023-04-21T19:11:10.149Z,22.95
2023-04-21T19:13:37.319Z,30.30
2023-04-21T19:16:04.922Z,31.23
2023-04-21T19:18:32.086Z,31.77
2023-04-21T19:20:59.056Z,28.50
2023-04-21T19:23:26.012Z,55.80
2023-04-21T19:25:55.067Z,31.10
2023-04-21T19:28:22.076Z,48.83
2023-04-21T19:30:49.526Z,36.60
2023-04-21T19:33:16.601Z,42.50
2023-04-21T19:35:43.647Z,40.72
2023-04-21T19:38:10.634Z,59.70
2023-04-21T19:40:37.666Z,49.67
2023-04-21T19:43:04.965Z,59.35
2023-04-21T19:45:32.479Z,67.57
2023-04-21T19:47:59.505Z,76.85
2023-04-21T19:50:26.800Z,44.35
2023-04-21T19:52:53.897Z,37.80
2023-04-21T19:55:20.957Z,38.83
2023-04-21T19:57:47.903Z,46.13
2023-04-21T20:00:15.675Z,83.18
2023-04-21T20:02:42.883Z,69.97
2023-04-21T20:05:10.020Z,55.50
2023-04-21T20:07:37.772Z,43.92
2023-04-21T20:10:05.969Z,51.42
2023-04-21T20:12:33.424Z,51.22
2023-04-21T20:15:01.201Z,55.47
2023-04-21T20:17:29.051Z,47.67
2023-04-21T20:19:56.117Z,42.28
2023-04-21T20:22:23.164Z,105.45
2023-04-21T20:24:52.078Z,54.30
2023-04-21T20:27:19.221Z,46.83
2023-04-21T20:29:47.049Z,80.85
2023-04-21T20:32:14.038Z,78.97
2023-04-21T20:34:41.425Z,113.15
2023-04-21T20:37:10.588Z,82.93
2023-04-21T20:39:38.492Z,150.68
2023-04-21T20:42:12.391Z,136.90
2023-04-21T20:44:42.260Z,97.93
2023-04-21T20:47:10.008Z,118.55
2023-04-21T20:49:37.523Z,130.77
2023-04-21T20:52:04.910Z,78.78
2023-04-21T20:54:34.450Z,107.35
2023-04-21T20:57:01.893Z,144.03
2023-04-21T20:59:29.046Z,128.10
2023-04-21T21:01:56.109Z,131.95
2023-04-21T21:04:23.259Z,85.95
2023-04-21T21:06:50.405Z,102.50
2023-04-21T21:09:18.887Z,67.38
2023-04-21T21:11:46.206Z,70.87
2023-04-21T21:14:13.311Z,96.80
2023-04-21T21:16:40.347Z,109.40
2023-04-21T21:19:07.500Z,113.65
2023-04-21T21:21:34.504Z,73.78
2023-04-21T21:24:01.464Z,68.88
2023-04-21T21:26:29.102Z,67.57
2023-04-21T21:28:59.414Z,23.52
2023-04-21T21:31:26.473Z,27.00
2023-04-21T21:33:55.739Z,29.92
2023-04-21T21:36:25.922Z,22.02
2023-04-21T21:38:52.851Z,31.13
2023-04-21T21:41:19.915Z,29.13
2023-04-21T21:43:46.886Z,29.52
2023-04-21T21:46:13.963Z,27.58
2023-04-21T21:48:42.504Z,23.80
2023-04-21T21:51:09.601Z,44.83
2023-04-21T21:53:43.912Z,38.58
2023-04-21T21:56:12.158Z,24.27
2023-04-21T21:58:47.855Z,42.03
2023-04-21T22:01:18.175Z,28.75
2023-04-21T22:03:45.423Z,32.75
2023-04-21T22:06:17.414Z,37.83
2023-04-21T22:08:49.651Z,23.38
2023-04-21T22:11:20.303Z,42.27
2023-04-21T22:13:55.078Z,48.03
2023-04-21T22:16:28.566Z,38.22
2023-04-21T22:18:57.126Z,48.97
2023-04-21T22:21:27.442Z,22.30
2023-04-21T22:23:58.539Z,39.70
2023-04-21T22:26:25.637Z,45.65
2023-04-21T22:28:54.795Z,69.47
2023-04-21T22:31:24.018Z,32.17
2023-04-21T22:33:51.087Z,28.02
2023-04-21T22:36:18.123Z,55.92
2023-04-21T22:38:46.500Z,26.13
2023-04-21T22:41:14.236Z,38.00
2023-04-21T22:43:46.866Z,33.27
2023-04-21T22:46:14.175Z,18.58
2023-04-21T22:48:41.348Z,42.35
2023-04-21T22:51:08.296Z,38.88
2023-04-21T22:53:35.426Z,68.55
2023-04-21T22:56:02.620Z,37.15
2023-04-21T22:58:29.513Z,32.33
2023-04-21T23:00:56.511Z,20.97
2023-04-21T23:03:24.170Z,22.80
2023-04-21T23:05:51.392Z,41.15
2023-04-21T23:08:18.346Z,53.53
2023-04-21T23:10:45.401Z,76.93
2023-04-21T23:13:12.375Z,72.85
2023-04-21T23:15:39.389Z,112.38
2023-04-21T23:18:06.681Z,34.63
2023-04-21T23:20:33.797Z,67.07
2023-04-21T23:23:00.868Z,93.10
2023-04-21T23:25:27.890Z,96.28
2023-04-21T23:27:54.809Z,95.10
2023-04-21T23:30:21.760Z,95.57
2023-04-21T23:32:48.775Z,128.70
2023-04-21T23:35:15.957Z,228.05
2023-04-21T23:37:43.031Z,96.28
2023-04-21T23:40:12.521Z,86.97
2023-04-21T23:42:39.603Z,59.90
2023-04-21T23:45:06.978Z,65.88
2023-04-21T23:47:34.044Z,39.63
2023-04-21T23:50:01.046Z,53.38
2023-04-21T23:52:27.967Z,61.58
2023-04-21T23:54:54.991Z,46.85
2023-04-21T23:57:21.919Z,95.68
2023-04-21T23:59:48.917Z,53.30
